createdAt,value
2022-12-24T00:02:40.758Z,86.72
2022-12-24T00:07:42.842Z,86.92
2022-12-24T00:12:50.865Z,86.56
2022-12-24T00:17:52.621Z,86.62
2022-12-24T00:22:54.510Z,86.88
2022-12-24T00:27:56.282Z,86.64
2022-12-24T00:32:58.071Z,86.94
2022-12-24T00:37:59.851Z,87.07
2022-12-24T00:43:01.605Z,86.77
2022-12-24T00:48:08.360Z,86.89
2022-12-24T00:53:10.192Z,86.97
2022-12-24T00:58:11.991Z,87.06
2022-12-24T01:03:13.681Z,87.13
2022-12-24T01:08:15.427Z,87.07
2022-12-24T01:13:17.283Z,87.19
2022-12-24T01:18:19.489Z,87.14
2022-12-24T01:23:21.284Z,87.16
2022-12-24T01:28:23.093Z,87.26
2022-12-24T01:33:29.099Z,87.22
2022-12-24T01:38:30.948Z,87.16
2022-12-24T01:43:33.383Z,87.02
2022-12-24T01:49:01.164Z,87.00
2022-12-24T01:54:34.628Z,87.37
2022-12-24T01:59:38.651Z,87.19
2022-12-24T02:04:48.060Z,87.21
2022-12-24T02:09:53.937Z,87.39
2022-12-24T02:14:55.985Z,87.44
2022-12-24T02:20:22.561Z,87.70
2022-12-24T02:25:50.026Z,87.63
2022-12-24T02:31:02.671Z,87.46
2022-12-24T02:36:11.227Z,87.07
2022-12-24T02:41:27.206Z,86.74
2022-12-24T02:46:32.823Z,86.25
2022-12-24T02:51:35.053Z,86.38
2022-12-24T02:56:42.802Z,86.61
2022-12-24T03:01:58.005Z,86.88
2022-12-24T03:07:10.689Z,87.30
2022-12-24T03:12:19.405Z,87.47
2022-12-24T03:17:21.201Z,87.82
2022-12-24T03:22:25.192Z,87.82
2022-12-24T03:27:33.427Z,88.03
2022-12-24T03:32:35.202Z,88.20
2022-12-24T03:37:37.279Z,88.37
2022-12-24T03:42:39.531Z,88.25
2022-12-24T03:47:41.391Z,88.20
2022-12-24T03:52:43.203Z,88.06
2022-12-24T03:57:45.031Z,87.99
2022-12-24T04:02:47.229Z,87.95
2022-12-24T04:07:49.183Z,87.92
2022-12-24T04:12:50.934Z,88.00
2022-12-24T04:17:52.651Z,88.01
2022-12-24T04:22:54.499Z,87.83
2022-12-24T04:27:56.394Z,87.81
2022-12-24T04:32:58.172Z,87.78
2022-12-24T04:38:00.220Z,88.07
2022-12-24T04:43:02.492Z,88.34
2022-12-24T04:48:04.488Z,88.64
2022-12-24T04:53:06.135Z,88.64
2022-12-24T04:58:07.816Z,88.54
2022-12-24T05:03:09.618Z,88.55
2022-12-24T05:08:11.465Z,88.46
2022-12-24T05:13:13.293Z,88.40
2022-12-24T05:18:15.330Z,88.47
2022-12-24T05:23:36.499Z,88.40
2022-12-24T05:28:38.300Z,88.11
2022-12-24T05:33:40.189Z,87.88
2022-12-24T05:38:42.654Z,87.78
2022-12-24T05:43:44.693Z,87.72
2022-12-24T05:48:47.940Z,87.88
2022-12-24T05:53:52.444Z,87.85
2022-12-24T05:58:55.049Z,87.89
2022-12-24T06:03:57.704Z,87.88
2022-12-24T06:08:59.516Z,87.73
2022-12-24T06:14:01.181Z,87.72
2022-12-24T06:19:03.025Z,87.68
2022-12-24T06:24:05.111Z,87.67
2022-12-24T06:29:06.994Z,87.80
2022-12-24T06:34:08.938Z,87.95
2022-12-24T06:39:10.731Z,88.21
2022-12-24T06:44:12.521Z,88.23
2022-12-24T06:49:14.225Z,88.24
2022-12-24T06:54:16.029Z,88.33
2022-12-24T06:59:17.843Z,88.34
2022-12-24T07:04:20.740Z,88.29
2022-12-24T07:09:22.599Z,88.35
2022-12-24T07:14:24.308Z,88.10
2022-12-24T07:19:25.997Z,87.95
2022-12-24T07:24:27.734Z,87.84
2022-12-24T07:29:29.400Z,87.67
2022-12-24T07:34:31.290Z,87.50
2022-12-24T07:39:33.512Z,87.37
2022-12-24T07:44:35.370Z,87.04
2022-12-24T07:49:37.275Z,86.80
2022-12-24T07:54:39.536Z,86.72
2022-12-24T07:59:41.324Z,86.58
2022-12-24T08:04:43.078Z,86.49
2022-12-24T08:09:46.262Z,86.48
2022-12-24T08:14:48.040Z,86.70
2022-12-24T08:19:49.840Z,86.20
2022-12-24T08:24:51.715Z,85.33
2022-12-24T08:29:53.667Z,85.00
2022-12-24T08:34:55.508Z,84.88
2022-12-24T08:39:57.249Z,84.74
2022-12-24T08:44:58.996Z,84.77
2022-12-24T08:50:00.958Z,84.67
2022-12-24T08:55:03.389Z,84.52
2022-12-24T09:00:06.373Z,84.18
2022-12-24T09:05:08.409Z,84.06
2022-12-24T09:10:10.971Z,83.98
2022-12-24T09:15:14.268Z,83.91
2022-12-24T09:20:16.245Z,83.89
2022-12-24T09:25:18.015Z,83.81
2022-12-24T09:30:19.893Z,83.68
2022-12-24T09:35:21.593Z,83.67
2022-12-24T09:40:33.396Z,83.46
2022-12-24T09:45:41.494Z,83.05
2022-12-24T09:51:08.320Z,82.93
2022-12-24T09:56:18.247Z,83.10
2022-12-24T10:01:20.301Z,83.11
2022-12-24T10:06:30.500Z,82.88
2022-12-24T10:11:47.147Z,82.66
2022-12-24T10:17:03.426Z,82.17
2022-12-24T10:22:19.974Z,81.83
2022-12-24T10:27:28.356Z,81.21
2022-12-24T10:32:34.528Z,81.64
2022-12-24T10:37:36.304Z,80.60
2022-12-24T10:42:50.882Z,80.53
2022-12-24T10:47:58.070Z,81.22
2022-12-24T10:53:13.228Z,81.66
2022-12-24T10:58:21.804Z,82.25
2022-12-24T11:03:30.331Z,81.32
2022-12-24T11:08:33.920Z,81.15
2022-12-24T11:13:53.194Z,81.79
2022-12-24T11:18:58.146Z,81.30
2022-12-24T11:24:29.174Z,81.72
2022-12-24T11:29:31.187Z,80.87
2022-12-24T11:34:33.014Z,79.46
2022-12-24T11:39:41.515Z,79.42
2022-12-24T11:44:49.379Z,80.07
2022-12-24T11:49:51.100Z,79.67
2022-12-24T11:55:08.886Z,79.92
2022-12-24T12:00:14.101Z,79.32
2022-12-24T12:05:23.916Z,78.49
2022-12-24T12:10:31.122Z,79.76
2022-12-24T12:15:37.816Z,79.38
2022-12-24T12:20:54.066Z,79.16
2022-12-24T12:26:02.573Z,79.36
2022-12-24T12:31:16.419Z,79.23
2022-12-24T12:36:25.649Z,80.17
2022-12-24T12:41:35.639Z,79.78
2022-12-24T12:46:56.780Z,79.90
2022-12-24T12:52:14.030Z,80.39
2022-12-24T12:57:18.488Z,79.69
2022-12-24T13:02:43.596Z,79.81
2022-12-24T13:08:28.522Z,79.60
2022-12-24T13:14:04.433Z,78.97
2022-12-24T13:19:24.841Z,79.64
2022-12-24T13:24:28.911Z,78.70
2022-12-24T13:29:35.022Z,78.39
2022-12-24T13:34:38.283Z,78.17
2022-12-24T13:40:13.416Z,78.79
2022-12-24T13:45:30.908Z,78.79
2022-12-24T13:50:51.354Z,78.09
2022-12-24T13:55:56.366Z,78.06
2022-12-24T14:01:06.575Z,78.26
2022-12-24T14:06:21.055Z,78.02
2022-12-24T14:11:25.650Z,77.90
2022-12-24T14:16:41.445Z,77.96
2022-12-24T14:22:10.172Z,77.94
2022-12-24T14:27:19.453Z,78.38
2022-12-24T14:32:21.205Z,78.24
2022-12-24T14:37:26.894Z,78.48
2022-12-24T14:42:41.186Z,79.23
2022-12-24T14:48:17.104Z,79.72
2022-12-24T14:53:24.794Z,78.66
2022-12-24T14:58:33.838Z,78.52
2022-12-24T15:03:35.677Z,78.93
2022-12-24T15:08:43.921Z,78.84
2022-12-24T15:13:49.311Z,79.23
2022-12-24T15:18:59.201Z,79.73
2022-12-24T15:24:01.043Z,79.51
2022-12-24T15:29:20.026Z,79.51
2022-12-24T15:34:26.096Z,79.57
2022-12-24T15:39:27.840Z,79.74
2022-12-24T15:44:35.155Z,80.16
2022-12-24T15:49:36.941Z,80.46
2022-12-24T15:54:45.014Z,80.44
2022-12-24T15:59:51.812Z,80.08
2022-12-24T16:04:53.544Z,80.44
2022-12-24T16:10:14.895Z,80.80
2022-12-24T16:15:16.999Z,80.72
2022-12-24T16:20:22.058Z,79.93
2022-12-24T16:25:28.790Z,79.85
2022-12-24T16:30:30.552Z,80.38
2022-12-24T16:35:38.310Z,80.38
2022-12-24T16:40:43.604Z,80.54
2022-12-24T16:45:47.160Z,80.45
2022-12-24T16:50:50.342Z,80.33
2022-12-24T16:55:53.392Z,80.57
2022-12-24T17:00:56.028Z,80.36
2022-12-24T17:05:57.801Z,80.53
2022-12-24T17:10:59.466Z,80.56
2022-12-24T17:16:03.136Z,80.60
2022-12-24T17:21:06.976Z,80.76
2022-12-24T17:26:14.948Z,80.38
2022-12-24T17:31:17.135Z,81.19
2022-12-24T17:36:19.876Z,81.01
2022-12-24T17:41:22.178Z,81.57
2022-12-24T17:46:24.058Z,81.19
2022-12-24T17:51:26.040Z,81.26
2022-12-24T17:56:28.877Z,81.41
2022-12-24T18:01:30.967Z,80.77
2022-12-24T18:06:32.794Z,80.54
2022-12-24T18:11:36.807Z,80.85
2022-12-24T18:16:40.075Z,81.28
2022-12-24T18:21:41.922Z,81.33
2022-12-24T18:26:48.583Z,81.88
2022-12-24T18:31:50.499Z,81.93
2022-12-24T18:36:55.351Z,81.83
2022-12-24T18:41:57.603Z,81.47
2022-12-24T18:47:00.048Z,81.66
2022-12-24T18:52:07.231Z,81.60
2022-12-24T18:57:09.405Z,81.83
2022-12-24T19:02:11.289Z,81.86
2022-12-24T19:07:13.344Z,81.77
2022-12-24T19:12:15.760Z,81.65
2022-12-24T19:17:17.764Z,81.48
2022-12-24T19:22:19.693Z,81.01
2022-12-24T19:27:21.499Z,80.89
2022-12-24T19:32:23.233Z,80.91
2022-12-24T19:37:25.079Z,80.82
2022-12-24T19:42:26.783Z,80.86
2022-12-24T19:47:28.508Z,80.76
2022-12-24T19:52:30.475Z,81.04
2022-12-24T19:57:32.234Z,81.28
2022-12-24T20:02:34.648Z,80.74
2022-12-24T20:07:36.517Z,81.11
2022-12-24T20:12:38.273Z,81.59
2022-12-24T20:17:40.028Z,81.05
2022-12-24T20:22:41.725Z,81.50
2022-12-24T20:27:43.372Z,81.74
2022-12-24T20:32:45.062Z,81.29
2022-12-24T20:37:46.941Z,81.53
2022-12-24T20:42:52.816Z,82.07
2022-12-24T20:47:54.688Z,81.93
2022-12-24T20:52:56.424Z,81.48
2022-12-24T20:57:58.574Z,81.39
2022-12-24T21:03:01.137Z,81.11
2022-12-24T21:08:05.529Z,80.97
2022-12-24T21:13:07.300Z,81.22
2022-12-24T21:18:12.208Z,81.62
2022-12-24T21:23:13.969Z,81.78
2022-12-24T21:28:20.005Z,81.79
2022-12-24T21:33:21.857Z,81.68
2022-12-24T21:38:23.575Z,81.61
2022-12-24T21:43:25.285Z,81.98
2022-12-24T21:48:47.476Z,81.52
2022-12-24T21:54:08.219Z,81.89
2022-12-24T21:59:09.950Z,82.00
2022-12-24T22:04:11.641Z,82.44
2022-12-24T22:09:36.414Z,82.12
2022-12-24T22:14:39.089Z,81.96
2022-12-24T22:19:40.860Z,82.04
2022-12-24T22:24:42.735Z,81.98
2022-12-24T22:29:44.607Z,82.16
2022-12-24T22:34:46.587Z,82.78
2022-12-24T22:39:48.307Z,82.69
2022-12-24T22:44:50.179Z,83.34
2022-12-24T22:49:52.205Z,82.54
2022-12-24T22:54:54.025Z,82.57
2022-12-24T22:59:55.844Z,83.29
2022-12-24T23:04:57.663Z,82.91
2022-12-24T23:09:59.859Z,82.43
2022-12-24T23:15:01.611Z,82.58
2022-12-24T23:20:03.882Z,82.81
2022-12-24T23:25:05.814Z,82.78
2022-12-24T23:30:08.557Z,83.11
2022-12-24T23:35:10.267Z,83.21
2022-12-24T23:40:12.131Z,83.40
2022-12-24T23:45:13.974Z,83.21
2022-12-24T23:50:15.901Z,83.07
2022-12-24T23:55:17.746Z,82.92
